Aérodrome :
LOGIN :

S'inscrire | Disclaimer

   EN    FR    IT 

 










Légende :    VFR   VFR Marginal   IFR   IFR Intensif   IFR Très Intensif
Visi : 
Plafond : 
>= 8 km
>= 3000ft
5 à 8 km
1000 à 3000 ft
1500m à 5 km
500 à 1000 ft
800 à 1500m
200 à 500 ft
< 800m
< 200 ft
Symboles :   Orages  Brouillard  Fortes neiges  Fortes précipitations  Vent > 20 kt
SIGMETs :   Divers  Orages  Givrage  Turbulence  Onde Orograph.  Cendres Volcan.







- Altitude de l'aérodrome : 297 ft
- Code IATA : UIP
- Voir les cartes d'approche


LFRQ - Quimper Pluguffan

DERNIER METAR :
  • 231000Z AUTO 03007KT CAVOK 07/04 Q1009 TEMPO 2000 TSRA BKN010CB

METARs EXPIRÉS :
  • 230930Z AUTO 03006KT 360V060 CAVOK 06/04 Q1009 TEMPO 2000 TSRA BKN010CB
  • 230900Z AUTO 04005KT 010V070 CAVOK 05/03 Q1009 TEMPO SHRA BKN015TCU
  • 230830Z AUTO 06005KT CAVOK 05/03 Q1009 TEMPO SHRA BKN015TCU
  • 230800Z AUTO 06006KT 030V090 9999 FEW040 BKN170 BKN200 05/03 Q1009 TEMPO SHRA BECMG SCT018TCU
  • 230730Z AUTO 03008KT 9999 BKN049 BKN190 04/02 Q1008 TEMPO SHRA BECMG SCT018TCU

TAF TAF LFRQ
Valide du 23 à 09h jusqu'au 23 à 18h UTC


230800Z 2309/2318 04007KT 9999 SCT018TCU BKN050
TEMPO 2309/2318 SHRA BKN015TCU
PROB30
TEMPO 2311/2318 2000 TSRA BKN010CB
Pas de NOTAMs connus pour ce terrain.



MET'MAP, la Météo Aéronautique d'un coup d'oeil ! - Copyright ORBIFLY Décembre 2007 - Disclaimer

ORBIFLY MET'MAP TEAM :

Programmation & Développement : Alexandra Zaïnal
Conception & Développement : Baudouin d'Aumeries
Co-Programmation & Développement : Marc-Olivier Méhu
Soutien technique & logistique : Manuel Goepfert

Contact : metmap@orbifly.com




SOURCES & CREDITS :

   NOAA